Time;durP1;ratioP1;P1;durP2;ratioP2;P2;SDS_P1;SDS_P2;PMS_P1;PMS_P2;Temp;Humidity;BMP_temperature;BMP_pressure;BME280_temperature;BME280_humidity;BME280_pressure;Samples;Min_cycle;Max_cycle;Signal;HPM_P1;HPM_P2
2021/06/17 00:01:40;;;;;;;10.05;4.00;;;;;;;19.14;63.39;100433.22;5117582;28;20392;-62
2021/06/17 00:04:06;;;;;;;7.05;3.63;;;;;;;19.08;63.42;100429.34;5117690;28;20034;-62
2021/06/17 00:06:31;;;;;;;8.38;3.47;;;;;;;19.03;63.57;100432.78;5115523;28;20027;-62
2021/06/17 00:08:57;;;;;;;8.05;3.83;;;;;;;18.99;63.39;100429.28;5117458;28;20070;-62
2021/06/17 00:11:22;;;;;;;6.60;3.50;;;;;;;18.95;63.47;100431.47;5117637;28;20396;-62
2021/06/17 00:13:48;;;;;;;7.38;3.83;;;;;;;18.91;63.83;100427.94;5117712;28;20512;-62
2021/06/17 00:16:13;;;;;;;9.25;3.58;;;;;;;18.88;63.62;100428.84;5117726;28;20024;-62
2021/06/17 00:18:38;;;;;;;8.63;4.38;;;;;;;18.83;64.15;100428.16;5098936;28;20019;-62
2021/06/17 00:21:04;;;;;;;9.13;4.45;;;;;;;18.82;64.21;100428.63;5117469;28;20024;-62
2021/06/17 00:23:31;;;;;;;6.60;3.50;;;;;;;18.81;63.94;100432.72;5117261;28;20031;-62
2021/06/17 00:25:57;;;;;;;10.02;3.70;;;;;;;18.84;63.68;100441.16;5117425;28;20023;-62
2021/06/17 00:28:25;;;;;;;5.60;3.47;;;;;;;18.89;63.41;100433.28;5117541;28;20038;-62
2021/06/17 00:30:51;;;;;;;6.47;3.70;;;;;;;18.92;63.45;100438.88;5116809;28;20015;-62
2021/06/17 00:33:16;;;;;;;8.05;3.30;;;;;;;18.95;63.17;100442.84;5107038;28;20044;-62
2021/06/17 00:35:42;;;;;;;9.98;3.88;;;;;;;18.91;63.39;100434.44;5107099;28;20035;-62
2021/06/17 00:38:07;;;;;;;14.32;4.07;;;;;;;18.87;63.58;100432.94;5117317;28;20027;-62
2021/06/17 00:40:33;;;;;;;5.38;3.90;;;;;;;18.79;63.64;100432.41;5117071;28;20028;-62
2021/06/17 00:42:59;;;;;;;5.00;3.97;;;;;;;18.72;63.51;100430.59;5117231;28;20375;-62
2021/06/17 00:45:35;;;;;;;9.82;4.10;;;;;;;18.64;64.09;100432.09;5117137;28;20296;-62
2021/06/17 00:48:02;;;;;;;10.35;3.70;;;;;;;18.56;64.39;100435.56;5098743;28;20066;-62
2021/06/17 00:50:32;;;;;;;11.15;4.00;;;;;;;18.49;64.31;100434.56;5111912;28;20016;-62
2021/06/17 00:52:59;;;;;;;9.45;3.92;;;;;;;18.45;64.61;100430.25;5116662;28;20076;-62
2021/06/17 00:55:25;;;;;;;4.82;3.72;;;;;;;18.42;64.39;100434.00;5116895;28;20024;-62
2021/06/17 00:57:51;;;;;;;6.20;4.30;;;;;;;18.37;64.75;100432.53;5116594;28;20312;-63
2021/06/17 01:00:17;;;;;;;10.25;4.13;;;;;;;18.34;65.13;100433.41;5116846;28;20024;-62
2021/06/17 01:02:43;;;;;;;8.25;4.25;;;;;;;18.34;64.97;100432.63;5116527;28;20028;-62
2021/06/17 01:05:14;;;;;;;8.30;3.78;;;;;;;18.33;64.76;100428.97;5116774;28;20030;-62
2021/06/17 01:07:45;;;;;;;;;;;;;;;18.31;64.57;100427.84;5116797;28;20407;-62
2021/06/17 01:10:36;;;;;;;9.77;4.22;;;;;;;18.29;65.12;100430.34;5116373;28;19915;-62
2021/06/17 01:13:39;;;;;;;12.15;4.35;;;;;;;18.31;64.45;100422.94;5116445;28;20023;-62
2021/06/17 01:16:22;;;;;;;9.73;3.83;;;;;;;18.38;64.33;100428.44;5116492;28;20377;-62
2021/06/17 01:18:54;;;;;;;6.78;4.13;;;;;;;18.39;64.17;100424.34;5116486;28;20015;-62
2021/06/17 01:21:42;;;;;;;8.63;4.00;;;;;;;18.38;64.05;100422.75;5116231;28;20098;-62
2021/06/17 01:24:41;;;;;;;10.70;3.58;;;;;;;18.37;64.12;100423.19;5066175;28;20325;-62
2021/06/17 01:27:28;;;;;;;5.82;4.05;;;;;;;18.34;63.97;100410.66;5110660;28;20439;-62
2021/06/17 01:29:58;;;;;;;8.27;3.90;;;;;;;18.34;64.25;100415.53;5106975;28;20066;-62
2021/06/17 01:32:25;;;;;;;6.97;4.00;;;;;;;18.29;64.40;100419.75;5104628;28;20308;-62
2021/06/17 01:34:52;;;;;;;7.72;4.65;;;;;;;18.26;64.19;100419.88;5105322;28;20051;-62
2021/06/17 01:37:21;;;;;;;7.22;4.18;;;;;;;18.28;64.23;100412.47;5113766;28;20015;-62
2021/06/17 01:39:48;;;;;;;5.93;4.10;;;;;;;18.31;64.09;100405.88;5116085;28;20069;-62
2021/06/17 01:42:15;;;;;;;10.40;3.72;;;;;;;18.34;63.83;100415.53;5116016;28;20031;-62
2021/06/17 01:44:42;;;;;;;8.80;4.35;;;;;;;18.31;63.83;100407.94;5116223;28;20020;-62
2021/06/17 01:47:08;;;;;;;7.88;4.60;;;;;;;18.27;64.29;100410.09;5116007;28;20031;-62
2021/06/17 01:49:38;;;;;;;7.82;4.43;;;;;;;18.22;64.51;100400.09;5116088;28;20062;-62
2021/06/17 01:52:05;;;;;;;8.57;3.92;;;;;;;18.18;64.70;100397.34;5115970;28;20026;-62
2021/06/17 01:54:32;;;;;;;10.57;4.32;;;;;;;18.17;64.57;100409.19;5115836;28;20315;-62
2021/06/17 01:57:00;;;;;;;7.00;4.20;;;;;;;18.14;64.60;100402.38;5115550;28;20314;-62
2021/06/17 01:59:27;;;;;;;10.15;4.35;;;;;;;18.15;64.42;100398.28;5115449;28;20153;-62
2021/06/17 02:01:56;;;;;;;8.77;4.60;;;;;;;18.19;64.55;100404.63;5106876;28;20404;-62
2021/06/17 02:04:22;;;;;;;7.35;4.57;;;;;;;18.19;64.69;100413.16;5093291;28;20028;-63
2021/06/17 02:06:48;;;;;;;5.85;4.20;;;;;;;18.16;64.61;100411.25;5106516;28;20024;-63
2021/06/17 02:09:15;;;;;;;9.30;4.60;;;;;;;18.15;64.82;100406.81;5115864;28;20023;-62
2021/06/17 02:11:41;;;;;;;10.40;4.80;;;;;;;18.12;64.83;100404.88;5115666;28;20015;-62
2021/06/17 02:14:09;;;;;;;12.18;4.70;;;;;;;18.13;64.75;100397.13;5115798;28;20438;-62
2021/06/17 02:16:35;;;;;;;10.20;5.03;;;;;;;18.12;65.25;100404.06;5101319;28;20455;-62
2021/06/17 02:19:02;;;;;;;9.73;4.50;;;;;;;18.11;65.31;100403.28;5115709;28;20024;-62
2021/06/17 02:21:30;;;;;;;8.40;4.65;;;;;;;18.12;64.83;100398.38;5115697;28;20319;-62
2021/06/17 02:23:57;;;;;;;6.55;4.57;;;;;;;18.16;64.71;100405.56;5115526;28;20030;-62
2021/06/17 02:26:26;;;;;;;5.93;4.10;;;;;;;18.19;64.74;100407.47;5115804;28;20028;-62
2021/06/17 02:28:53;;;;;;;7.07;4.40;;;;;;;18.21;64.63;100410.66;5115450;28;20445;-62
2021/06/17 02:31:23;;;;;;;8.15;4.40;;;;;;;18.21;64.25;100404.19;5115792;28;20011;-62
2021/06/17 02:33:50;;;;;;;7.28;4.65;;;;;;;18.21;64.65;100413.50;5104837;28;20097;-62
2021/06/17 02:36:18;;;;;;;7.82;4.38;;;;;;;18.19;64.78;100409.53;5107224;28;20043;-62
2021/06/17 02:38:45;;;;;;;7.18;4.00;;;;;;;18.17;64.54;100412.84;5115256;28;20415;-62
2021/06/17 02:41:13;;;;;;;7.40;4.35;;;;;;;18.19;64.55;100415.22;5115343;28;20015;-62
2021/06/17 02:43:44;;;;;;;9.93;5.68;;;;;;;18.18;64.41;100417.28;5115301;28;20030;-62
2021/06/17 02:46:09;;;;;;;10.68;4.40;;;;;;;18.19;64.50;100409.53;5115554;28;20016;-62
2021/06/17 02:48:35;;;;;;;9.73;4.47;;;;;;;18.18;64.80;100410.78;5097079;28;20050;-62
2021/06/17 02:51:01;;;;;;;6.20;4.75;;;;;;;18.14;64.88;100410.09;5115285;28;20011;-62
2021/06/17 02:53:26;;;;;;;6.60;3.95;;;;;;;18.10;65.01;100410.22;5115584;28;20032;-62
2021/06/17 02:55:52;;;;;;;7.20;4.13;;;;;;;18.11;64.78;100405.31;5115557;28;20103;-62
2021/06/17 02:58:36;;;;;;;7.97;4.18;;;;;;;18.11;65.01;100408.97;5115365;28;20019;-62
2021/06/17 03:01:04;;;;;;;8.65;3.88;;;;;;;18.09;65.01;100405.78;5115283;28;20024;-62
2021/06/17 03:03:39;;;;;;;7.28;3.90;;;;;;;18.12;65.28;100407.72;5115068;28;20024;-62
2021/06/17 03:06:17;;;;;;;9.55;4.13;;;;;;;18.17;65.01;100412.84;5115155;28;20039;-62
2021/06/17 03:09:15;;;;;;;6.78;4.85;;;;;;;18.20;64.92;100409.06;5117613;28;20076;-62
2021/06/17 03:11:45;;;;;;;6.35;3.78;;;;;;;18.23;64.90;100416.69;5118502;28;20031;-62
2021/06/17 03:14:21;;;;;;;6.80;4.40;;;;;;;18.23;65.20;100416.69;5117128;28;20431;-62
2021/06/17 03:16:50;;;;;;;4.85;4.00;;;;;;;18.26;65.43;100425.56;5107618;28;20075;-62
2021/06/17 03:19:18;;;;;;;8.27;4.50;;;;;;;18.28;65.72;100417.38;5117521;28;20433;-62
2021/06/17 03:21:48;;;;;;;8.23;3.90;;;;;;;18.31;65.45;100417.25;5118611;28;20093;-62
2021/06/17 03:24:15;;;;;;;8.40;4.35;;;;;;;18.37;65.28;100418.31;5108562;28;20024;-62
2021/06/17 03:26:43;;;;;;;6.07;4.13;;;;;;;18.41;65.74;100418.97;5101115;28;20023;-62
2021/06/17 03:29:12;;;;;;;6.20;3.72;;;;;;;18.44;65.49;100431.50;5106485;28;20024;-62
2021/06/17 03:31:39;;;;;;;15.43;8.27;;;;;;;18.47;65.74;100437.06;5118013;28;20027;-62
2021/06/17 03:34:06;;;;;;;13.38;8.65;;;;;;;18.51;65.43;100440.59;5115161;28;20071;-62
2021/06/17 03:36:34;;;;;;;10.65;7.22;;;;;;;18.57;66.00;100435.13;5101196;28;20032;-62
2021/06/17 03:39:02;;;;;;;10.52;6.55;;;;;;;18.60;65.70;100434.19;5110916;28;20020;-62
2021/06/17 03:41:29;;;;;;;9.18;5.22;;;;;;;18.65;66.21;100442.22;5106731;28;20028;-62
2021/06/17 03:43:56;;;;;;;8.27;4.97;;;;;;;18.67;65.76;100439.72;5100321;28;20073;-62
2021/06/17 03:46:22;;;;;;;10.45;5.10;;;;;;;18.74;65.74;100436.63;5099490;28;20307;-62
2021/06/17 03:48:48;;;;;;;7.05;4.40;;;;;;;18.80;65.89;100443.31;5098334;28;20028;-62
2021/06/17 03:51:15;;;;;;;7.45;4.05;;;;;;;18.87;65.94;100436.59;5097877;28;20107;-62
2021/06/17 03:53:43;;;;;;;6.78;4.55;;;;;;;18.92;65.59;100429.53;5097948;28;20028;-62
2021/06/17 03:56:11;;;;;;;6.40;4.10;;;;;;;18.97;65.53;100428.94;5111835;28;20020;-62
2021/06/17 03:58:37;;;;;;;6.43;4.18;;;;;;;19.03;65.93;100430.75;5096973;28;20031;-62
2021/06/17 04:01:06;;;;;;;6.85;4.85;;;;;;;19.10;65.83;100421.16;5099774;28;20043;-62
2021/06/17 04:03:33;;;;;;;7.88;5.05;;;;;;;19.17;65.90;100432.28;5102429;28;20028;-62
2021/06/17 04:06:00;;;;;;;8.23;4.00;;;;;;;19.24;65.68;100431.25;5080171;28;20023;-63
2021/06/17 04:08:41;;;;;;;7.70;4.72;;;;;;;19.32;65.33;100427.69;5098368;28;20016;-62
2021/06/17 04:11:08;;;;;;;6.78;4.20;;;;;;;19.39;65.37;100430.25;5098640;28;20111;-62
2021/06/17 04:13:37;;;;;;;8.50;4.50;;;;;;;19.49;65.10;100433.22;5098383;28;20293;-63
2021/06/17 04:16:04;;;;;;;7.20;3.97;;;;;;;19.57;64.58;100437.41;5110373;28;20353;-63
2021/06/17 04:18:31;;;;;;;9.75;4.50;;;;;;;19.64;65.12;100435.06;5116895;28;20054;-62
2021/06/17 04:20:58;;;;;;;7.60;4.35;;;;;;;19.73;64.32;100434.38;5110164;28;20081;-62
2021/06/17 04:23:26;;;;;;;7.90;4.05;;;;;;;19.81;64.63;100435.69;5107764;28;20114;-63
2021/06/17 04:25:53;;;;;;;6.80;4.35;;;;;;;19.89;64.15;100436.19;5109193;28;20488;-63
2021/06/17 04:28:20;;;;;;;6.63;4.60;;;;;;;19.97;63.99;100444.00;5106215;28;20048;-61
2021/06/17 04:30:46;;;;;;;6.15;4.20;;;;;;;20.08;64.21;100435.06;5110621;28;20031;-64
2021/06/17 04:33:16;;;;;;;8.07;4.47;;;;;;;20.17;63.69;100429.38;5103113;28;20044;-61
2021/06/17 04:35:44;;;;;;;7.25;4.72;;;;;;;20.27;63.72;100433.88;5100414;28;20039;-62
2021/06/17 04:38:15;;;;;;;5.97;4.18;;;;;;;20.35;63.00;100443.75;5106768;28;20463;-62
2021/06/17 04:40:42;;;;;;;7.18;4.20;;;;;;;20.44;62.42;100447.94;5102551;28;20092;-62
2021/06/17 04:43:09;;;;;;;8.85;4.43;;;;;;;20.53;63.01;100448.75;5104104;28;20315;-62
2021/06/17 04:45:36;;;;;;;10.60;4.38;;;;;;;20.59;62.22;100441.19;5105263;28;20073;-63
2021/06/17 04:48:08;;;;;;;8.65;3.90;;;;;;;20.67;63.21;100439.59;5104419;28;20027;-63
2021/06/17 04:50:34;;;;;;;10.73;4.68;;;;;;;20.76;61.66;100449.47;5109234;28;20031;-62
2021/06/17 04:52:59;;;;;;;6.97;4.72;;;;;;;20.83;61.50;100446.34;5109921;28;20473;-62
2021/06/17 04:55:24;;;;;;;6.53;3.92;;;;;;;20.90;61.27;100452.53;5102726;28;20084;-62
2021/06/17 04:57:50;;;;;;;12.75;5.00;;;;;;;20.98;61.09;100450.16;5102563;28;20024;-63
2021/06/17 05:00:16;;;;;;;7.43;4.70;;;;;;;21.05;61.10;100452.69;5098810;28;20020;-63
2021/06/17 05:02:41;;;;;;;9.45;4.63;;;;;;;21.12;61.02;100449.56;5110090;28;20406;-62
2021/06/17 05:05:08;;;;;;;8.30;5.03;;;;;;;21.20;60.94;100447.97;5108980;28;20023;-62
2021/06/17 05:12:46;;;;;;;6.05;4.28;;;;;;;21.47;59.86;100470.09;5113191;28;20490;-63
2021/06/17 05:15:11;;;;;;;7.45;4.38;;;;;;;21.53;59.55;100465.31;5113568;28;20114;-63
2021/06/17 05:17:37;;;;;;;8.07;4.57;;;;;;;21.59;59.42;100459.75;5098169;28;20153;-62
2021/06/17 05:20:04;;;;;;;7.05;4.53;;;;;;;21.66;59.53;100468.03;5115018;28;20012;-63
2021/06/17 05:22:30;;;;;;;7.20;4.18;;;;;;;21.73;59.29;100459.13;5115768;28;20032;-62
2021/06/17 05:24:55;;;;;;;8.45;4.90;;;;;;;21.81;58.10;100471.81;5115947;28;20027;-62
2021/06/17 05:27:21;;;;;;;7.75;4.50;;;;;;;21.87;58.02;100472.75;5115912;28;20024;-63
2021/06/17 05:29:46;;;;;;;7.30;4.32;;;;;;;21.93;58.24;100480.72;5115732;28;20016;-63
2021/06/17 05:32:14;;;;;;;8.48;4.50;;;;;;;22.00;57.96;100466.06;5116032;28;20394;-62
2021/06/17 05:34:40;;;;;;;8.60;4.85;;;;;;;22.07;58.17;100474.34;5112746;28;20040;-63
2021/06/17 05:37:05;;;;;;;10.82;4.50;;;;;;;22.12;57.52;100477.34;5113849;28;20072;-63
2021/06/17 05:39:31;;;;;;;10.82;4.63;;;;;;;22.19;57.94;100476.25;5116029;28;20418;-62
2021/06/17 05:41:56;;;;;;;7.28;4.32;;;;;;;22.25;57.67;100477.19;5115779;28;20028;-62
2021/06/17 05:44:22;;;;;;;6.50;4.65;;;;;;;22.34;57.07;100482.06;5116182;28;20088;-62
2021/06/17 05:46:47;;;;;;;10.48;4.38;;;;;;;22.41;56.77;100493.97;5115906;28;20032;-62
2021/06/17 05:49:14;;;;;;;6.45;4.20;;;;;;;22.49;55.90;100494.44;5115928;28;20110;-62
2021/06/17 05:51:39;;;;;;;8.73;4.75;;;;;;;22.55;56.70;100491.72;5116077;28;20016;-62
2021/06/17 05:54:04;;;;;;;9.32;4.20;;;;;;;22.61;56.12;100495.50;5115951;28;20019;-63
2021/06/17 05:56:30;;;;;;;7.18;3.88;;;;;;;22.66;55.83;100500.56;5115756;28;20323;-63
2021/06/17 05:58:56;;;;;;;8.95;4.45;;;;;;;22.71;55.65;100494.19;5115722;28;20020;-63
2021/06/17 06:01:21;;;;;;;5.90;4.32;;;;;;;22.79;55.85;100501.16;5116192;28;20019;-63
2021/06/17 06:03:48;;;;;;;8.43;4.53;;;;;;;22.85;55.99;100499.25;5115766;28;20106;-63
2021/06/17 06:06:13;;;;;;;10.98;3.90;;;;;;;22.94;55.47;100496.31;5115834;28;20024;-63
2021/06/17 06:08:39;;;;;;;6.97;3.90;;;;;;;22.98;56.18;100499.81;5115832;28;20048;-62
2021/06/17 06:11:04;;;;;;;4.70;3.92;;;;;;;23.06;56.14;100494.53;5115415;28;20027;-63
2021/06/17 06:13:31;;;;;;;8.75;4.32;;;;;;;23.16;55.49;100503.84;5115934;28;20411;-63
2021/06/17 06:15:57;;;;;;;9.95;4.40;;;;;;;23.25;55.65;100498.03;5115658;28;20334;-62
2021/06/17 06:18:26;;;;;;;8.20;4.00;;;;;;;23.35;55.54;100503.25;5115569;28;20103;-62
2021/06/17 06:20:56;;;;;;;9.07;4.55;;;;;;;23.44;55.26;100505.25;5115573;28;20020;-63
2021/06/17 06:23:22;;;;;;;7.43;4.03;;;;;;;23.52;55.16;100506.47;5115991;28;20294;-63
2021/06/17 06:25:49;;;;;;;8.55;4.05;;;;;;;23.60;54.48;100507.72;5115591;28;20073;-63
2021/06/17 06:28:15;;;;;;;8.02;4.30;;;;;;;23.67;54.21;100513.06;5115514;28;20080;-63
2021/06/17 06:30:40;;;;;;;9.02;4.70;;;;;;;23.74;53.92;100511.91;5115771;28;20357;-63
2021/06/17 06:33:06;;;;;;;6.25;3.85;;;;;;;23.82;54.06;100512.28;5097437;28;20369;-63
2021/06/17 06:35:31;;;;;;;7.90;3.78;;;;;;;23.91;54.62;100520.84;5110013;28;20020;-63
2021/06/17 06:37:56;;;;;;;8.70;3.95;;;;;;;23.98;53.87;100518.38;5115522;28;20023;-63
2021/06/17 06:40:24;;;;;;;7.97;4.47;;;;;;;24.03;52.99;100528.38;5115574;28;20072;-63
2021/06/17 06:42:53;;;;;;;6.45;3.78;;;;;;;24.10;53.29;100510.75;5118535;28;20047;-63
2021/06/17 06:45:18;;;;;;;7.72;4.10;;;;;;;24.14;52.44;100517.13;5119303;28;20024;-63
2021/06/17 06:47:44;;;;;;;6.75;4.05;;;;;;;24.18;52.53;100523.44;5119465;28;20104;-63
2021/06/17 06:50:10;;;;;;;7.15;3.70;;;;;;;24.25;52.62;100522.25;5119272;28;20019;-63
2021/06/17 06:52:36;;;;;;;7.53;3.65;;;;;;;24.30;52.06;100528.13;5119130;28;20118;-63
2021/06/17 06:55:05;;;;;;;10.13;4.35;;;;;;;24.38;51.78;100525.69;5119182;28;20142;-63
2021/06/17 06:57:31;;;;;;;5.30;3.55;;;;;;;24.44;53.20;100525.78;5118993;28;20023;-63
2021/06/17 06:59:56;;;;;;;9.85;3.95;;;;;;;24.51;53.49;100522.50;5119133;28;20023;-63
2021/06/17 07:02:21;;;;;;;8.57;4.10;;;;;;;24.60;53.17;100525.25;5119297;28;20031;-63
2021/06/17 07:04:47;;;;;;;4.65;3.88;;;;;;;24.66;51.75;100523.28;5119206;28;20027;-63
2021/06/17 07:07:12;;;;;;;11.52;4.38;;;;;;;24.73;53.25;100530.69;5119161;28;20303;-63
2021/06/17 07:09:37;;;;;;;7.15;3.90;;;;;;;24.80;51.65;100518.78;5118564;28;20035;-63
2021/06/17 07:12:03;;;;;;;9.75;3.70;;;;;;;24.86;50.63;100526.19;5118963;28;20031;-63
2021/06/17 07:14:29;;;;;;;7.70;3.58;;;;;;;24.95;51.57;100531.06;5118821;28;20035;-63
2021/06/17 07:16:55;;;;;;;6.95;4.03;;;;;;;25.04;50.05;100530.16;5118776;28;20051;-63
2021/06/17 07:19:21;;;;;;;5.13;3.17;;;;;;;25.09;49.70;100532.31;5119149;28;20053;-63
2021/06/17 07:21:46;;;;;;;7.80;3.33;;;;;;;25.12;48.36;100534.19;5118245;28;20020;-64
2021/06/17 07:24:12;;;;;;;4.68;3.25;;;;;;;25.15;49.16;100536.06;5118597;28;20043;-63
2021/06/17 07:26:37;;;;;;;9.63;3.70;;;;;;;25.21;50.40;100534.09;5118469;28;20026;-63
2021/06/17 07:29:03;;;;;;;6.97;3.50;;;;;;;25.27;49.80;100540.69;5118766;28;20023;-63
2021/06/17 07:31:29;;;;;;;9.30;3.40;;;;;;;25.34;49.88;100531.63;5118632;28;20024;-63
2021/06/17 07:33:54;;;;;;;8.13;3.60;;;;;;;25.41;50.68;100525.44;5118231;28;20081;-63
2021/06/17 07:36:20;;;;;;;7.07;3.65;;;;;;;25.53;50.29;100520.66;5112672;28;20031;-63
2021/06/17 07:38:45;;;;;;;9.27;3.67;;;;;;;25.61;49.59;100524.66;5117964;28;20019;-63
2021/06/17 07:41:11;;;;;;;4.68;3.30;;;;;;;25.65;49.11;100525.25;5118741;28;20403;-62
2021/06/17 07:43:36;;;;;;;7.10;3.47;;;;;;;25.74;49.27;100530.06;5118088;28;20023;-64
2021/06/17 07:46:04;;;;;;;7.57;3.28;;;;;;;25.80;48.15;100530.97;5118438;28;20026;-62
2021/06/17 07:48:29;;;;;;;6.10;3.20;;;;;;;25.83;47.91;100527.06;5118359;28;20023;-64
2021/06/17 07:50:55;;;;;;;6.07;3.38;;;;;;;25.88;47.83;100535.75;5117991;28;20060;-63
2021/06/17 07:53:21;;;;;;;7.10;3.17;;;;;;;25.95;49.16;100527.97;5117137;28;20077;-63
2021/06/17 07:55:46;;;;;;;4.13;3.53;;;;;;;26.00;47.60;100536.66;5117972;28;20015;-63
2021/06/17 07:58:12;;;;;;;7.85;3.58;;;;;;;26.00;48.20;100530.91;5118249;28;20024;-63
2021/06/17 08:00:38;;;;;;;8.60;3.65;;;;;;;26.04;48.02;100531.50;5117546;28;20040;-63
2021/06/17 08:03:04;;;;;;;3.33;2.83;;;;;;;26.10;48.60;100532.34;5118127;28;20042;-63
2021/06/17 08:05:29;;;;;;;4.88;3.20;;;;;;;26.18;48.84;100524.81;5118232;28;20387;-63
2021/06/17 08:07:55;;;;;;;9.25;3.65;;;;;;;26.28;49.40;100521.75;5117365;28;20047;-63
2021/06/17 08:10:21;;;;;;;5.18;3.45;;;;;;;26.37;47.68;100524.50;5117891;28;20076;-63
2021/06/17 08:12:47;;;;;;;5.15;3.15;;;;;;;26.43;47.31;100519.59;5117572;28;20023;-64
2021/06/17 08:15:12;;;;;;;8.38;3.45;;;;;;;26.47;48.03;100517.25;5117565;28;20016;-63
2021/06/17 08:17:38;;;;;;;5.70;3.20;;;;;;;26.54;47.87;100508.16;5117959;28;20312;-63
2021/06/17 08:20:05;;;;;;;7.35;3.65;;;;;;;26.62;48.23;100517.94;5114375;28;20016;-63
2021/06/17 08:22:31;;;;;;;6.53;3.88;;;;;;;26.69;48.17;100517.47;5107055;28;20085;-63
2021/06/17 08:24:56;;;;;;;11.80;3.58;;;;;;;26.73;46.17;100514.34;5117225;28;20412;-63
2021/06/17 08:27:40;;;;;;;7.47;3.20;;;;;;;26.74;47.28;100516.69;5117614;28;20069;-63
2021/06/17 08:30:09;;;;;;;9.10;3.28;;;;;;;26.77;46.56;100515.69;5117171;28;20037;-63
2021/06/17 08:32:34;;;;;;;7.25;3.10;;;;;;;26.78;46.68;100511.50;5117231;28;20056;-64
2021/06/17 08:35:00;;;;;;;6.88;3.33;;;;;;;26.85;47.97;100518.09;5111395;28;20016;-63
2021/06/17 08:37:25;;;;;;;4.15;2.72;;;;;;;26.91;46.11;100513.16;5117033;28;20020;-63
2021/06/17 08:39:54;;;;;;;5.55;3.10;;;;;;;26.97;46.79;100514.00;5117384;28;20023;-63
2021/06/17 08:42:24;;;;;;;5.82;3.90;;;;;;;27.07;46.81;100521.16;5117427;28;20012;-63
2021/06/17 08:44:49;;;;;;;5.43;2.95;;;;;;;27.18;45.10;100523.34;5116795;28;20142;-63
2021/06/17 08:47:14;;;;;;;7.25;2.85;;;;;;;27.26;45.20;100522.31;5116625;28;20051;-64
2021/06/17 08:49:40;;;;;;;3.85;2.97;;;;;;;27.33;44.93;100524.72;5098950;28;20034;-63
2021/06/17 08:52:06;;;;;;;10.23;3.15;;;;;;;27.39;45.20;100528.44;5116384;28;20020;-63
2021/06/17 08:54:32;;;;;;;8.75;3.45;;;;;;;27.45;43.59;100530.56;5117089;28;20077;-63
2021/06/17 08:56:58;;;;;;;5.32;2.88;;;;;;;27.44;42.93;100531.88;5116855;28;20024;-63
2021/06/17 08:59:38;;;;;;;6.75;2.05;;;;;;;27.45;44.51;100527.69;5116765;28;20263;-63
2021/06/17 09:02:04;;;;;;;5.57;2.80;;;;;;;27.55;43.76;100526.16;5116860;28;20423;-63
2021/06/17 09:04:31;;;;;;;4.43;2.47;;;;;;;27.56;42.42;100524.84;5116898;28;20314;-64
2021/06/17 09:07:02;;;;;;;7.45;2.78;;;;;;;27.59;44.09;100521.69;5116361;28;20106;-63
2021/06/17 09:09:41;;;;;;;;;;;;;;;27.62;43.08;100520.69;5116974;28;20047;-63
2021/06/17 09:12:09;;;;;;;4.28;2.47;;;;;;;27.66;42.87;100517.53;5116595;28;19908;-63
2021/06/17 09:14:34;;;;;;;10.02;2.80;;;;;;;27.72;41.63;100518.38;5116286;28;20106;-63
2021/06/17 09:17:08;;;;;;;10.02;2.65;;;;;;;27.80;42.31;100527.31;5116457;28;20149;-63
2021/06/17 09:19:40;;;;;;;7.88;3.17;;;;;;;27.83;40.78;100527.06;5116164;28;20288;-64
2021/06/17 09:22:07;;;;;;;4.13;2.53;;;;;;;27.86;42.35;100531.81;5102322;28;20016;-63
2021/06/17 09:24:34;;;;;;;9.63;2.85;;;;;;;27.87;39.32;100521.84;5116569;28;20051;-63
2021/06/17 09:27:22;;;;;;;8.02;2.38;;;;;;;27.87;39.82;100526.81;5116044;28;20407;-63
2021/06/17 09:29:53;;;;;;;3.80;2.30;;;;;;;27.83;39.79;100521.28;5116296;28;20031;-63
2021/06/17 09:32:23;;;;;;;;;;;;;;;27.87;41.17;100527.59;5116811;28;20023;-63
2021/06/17 09:34:49;;;;;;;4.60;2.00;;;;;;;27.91;40.90;100522.38;5111409;28;19923;-63
2021/06/17 09:37:47;;;;;;;5.20;2.13;;;;;;;27.96;40.98;100515.84;5115049;28;20023;-63
2021/06/17 09:40:33;;;;;;;5.93;2.38;;;;;;;28.00;40.57;100519.25;5052218;28;20124;-63
2021/06/17 09:43:22;;;;;;;3.63;2.40;;;;;;;28.09;40.25;100521.09;5116128;28;20019;-63
2021/06/17 09:46:02;;;;;;;3.42;2.50;;;;;;;28.15;40.18;100518.22;5116022;28;20030;-63
2021/06/17 09:48:34;;;;;;;4.78;2.45;;;;;;;28.22;39.04;100523.50;5116039;28;20105;-63
2021/06/17 09:51:29;;;;;;;3.53;2.47;;;;;;;28.29;39.19;100520.91;5101584;28;20103;-63
2021/06/17 09:54:23;;;;;;;3.03;2.10;;;;;;;28.38;39.27;100514.09;5116147;28;20339;-63
2021/06/17 09:56:58;;;;;;;4.57;2.67;;;;;;;28.50;39.76;100515.69;5104099;28;20045;-63
2021/06/17 09:59:49;;;;;;;5.50;2.53;;;;;;;28.57;39.16;100523.81;5116054;28;20030;-63
2021/06/17 10:02:36;;;;;;;5.88;2.55;;;;;;;28.49;38.47;100522.78;5115812;28;20296;-63
2021/06/17 10:05:22;;;;;;;3.55;2.42;;;;;;;28.45;38.78;100519.34;5115608;28;20372;-63
2021/06/17 10:07:49;;;;;;;7.30;2.80;;;;;;;28.42;39.07;100520.38;5115874;28;20054;-63
2021/06/17 10:10:18;;;;;;;3.97;2.47;;;;;;;28.42;38.63;100505.94;5115937;28;20032;-63
2021/06/17 10:12:44;;;;;;;6.78;2.67;;;;;;;28.40;38.86;100511.44;5115690;28;20027;-63
2021/06/17 10:15:10;;;;;;;7.30;2.72;;;;;;;28.43;39.66;100504.63;5115691;28;20020;-63
2021/06/17 10:17:36;;;;;;;4.68;2.45;;;;;;;28.53;39.71;100511.75;5118311;28;20110;-63
2021/06/17 10:20:06;;;;;;;7.22;2.53;;;;;;;28.65;38.64;100512.50;5119668;28;20098;-63
2021/06/17 10:22:32;;;;;;;5.03;2.78;;;;;;;28.77;38.18;100504.63;5120034;28;20120;-63
2021/06/17 10:24:59;;;;;;;6.22;2.92;;;;;;;28.94;37.90;100517.00;5101619;28;20039;-63
2021/06/17 10:27:35;;;;;;;5.47;2.30;;;;;;;29.06;37.24;100506.19;5119982;28;20323;-63
2021/06/17 10:30:01;;;;;;;5.10;2.45;;;;;;;29.02;36.94;100506.44;5119464;28;20367;-63
2021/06/17 10:32:36;;;;;;;6.88;2.58;;;;;;;29.06;36.48;100504.09;5119757;28;20319;-64
2021/06/17 10:35:03;;;;;;;3.65;2.40;;;;;;;29.07;37.69;100505.66;5104771;28;20039;-64
2021/06/17 10:37:31;;;;;;;5.60;2.58;;;;;;;29.06;36.86;100509.09;5099215;28;20028;-63
2021/06/17 10:40:04;;;;;;;6.40;2.55;;;;;;;29.07;37.50;100505.66;5099325;28;20055;-63
2021/06/17 10:42:41;;;;;;;6.50;2.45;;;;;;;29.11;37.24;100503.28;5085096;28;20339;-63
2021/06/17 10:45:07;;;;;;;6.53;2.72;;;;;;;29.14;37.45;100510.91;5099175;28;20026;-62
2021/06/17 10:47:50;;;;;;;2.85;2.40;;;;;;;29.26;37.93;100505.06;5098804;28;20111;-63
2021/06/17 10:50:20;;;;;;;4.60;2.40;;;;;;;29.33;36.86;100495.88;5099306;28;20028;-63
2021/06/17 10:52:47;;;;;;;8.40;2.17;;;;;;;29.32;35.14;100485.59;5098980;28;20024;-63
2021/06/17 10:55:15;;;;;;;4.00;2.08;;;;;;;29.33;35.27;100492.97;5098926;28;20070;-63
2021/06/17 10:57:47;;;;;;;6.68;2.45;;;;;;;29.35;34.52;100496.91;5098786;28;20023;-63
2021/06/17 11:00:22;;;;;;;8.60;2.47;;;;;;;29.41;35.32;100491.09;5098863;28;20020;-63
2021/06/17 11:02:55;;;;;;;2.65;2.30;;;;;;;29.42;35.00;100489.78;5098166;28;20047;-63
2021/06/17 11:08:13;;;;;;;2.80;2.47;;;;;;;29.57;37.61;100474.97;5098344;28;20334;-63
2021/06/17 11:10:53;;;;;;;4.40;2.17;;;;;;;29.61;38.22;100473.41;5098694;28;20091;-63
2021/06/17 11:13:26;;;;;;;7.82;3.30;;;;;;;29.69;35.19;100465.72;5085982;28;20027;-63
2021/06/17 11:15:52;;;;;;;2.53;1.88;;;;;;;29.70;34.90;100475.19;5098139;28;20358;-63
2021/06/17 11:19:26;;;;;;;5.82;2.40;;;;;;;29.81;38.85;100469.31;5098293;28;20086;-64
2021/06/17 11:21:27;;;;;;;5.03;2.40;;;;;;;29.91;36.92;100481.41;5086034;28;20326;-64
2021/06/17 11:24:02;;;;;;;2.67;2.40;;;;;;;30.01;36.46;100476.84;5098226;28;20028;-63
2021/06/17 11:26:44;;;;;;;3.08;2.15;;;;;;;30.14;36.12;100479.97;5098179;28;20082;-63
2021/06/17 11:29:10;;;;;;;;;;;;;;;30.16;34.83;100465.72;5097466;28;20043;-65
2021/06/17 11:31:49;;;;;;;10.38;2.58;;;;;;;30.16;35.30;100464.94;5098000;28;19908;-66
2021/06/17 11:34:33;;;;;;;3.20;2.20;;;;;;;30.15;35.99;100475.75;5112243;28;20135;-63
2021/06/17 11:37:11;;;;;;;4.60;2.28;;;;;;;30.05;35.42;100460.78;5114879;28;20122;-64
2021/06/17 11:39:37;;;;;;;3.80;2.53;;;;;;;30.03;35.12;100465.53;5118660;28;20024;-66
2021/06/17 11:42:04;;;;;;;4.50;2.25;;;;;;;29.98;35.44;100475.03;5118087;28;20051;-65